aviador You're here:

ZYTL Decoded Metar

DALIAN in CHINA
Report Time2017-05-28 06:30:00
UTC Time2017-05-28 06:46:19
Flight Rules vfr VFR
Wind110° at 10 kt
W.Decomp.*RWY 10: 9.5 kt HW 3.1 kt RCW
W.Rank110° ranks 4
Current wind is above 110° avg. (7.6)
Visibility9999 m
Phenomena:N/A
Clouds:N/A
Expected CloudBase > 3,200 ft AGL from Temp-Dew spread
CeilingNone
Temp24°C (ISA +10)
Dew Point16°C (61% RH)
AAT22.4°C
QNH1008 hPa
Density Alt1,847 ft
Elevation318 ft
Report Wrong Elevation
Raw Report
METAR ZYTL 280630Z 11005MPS CAVOK 24/16 Q1008 BECMG TL0800 01004MPS=

Extra information for ZYTL:More info

Metar Taf Metar & Taf Last 4 Metars F.Rules Stats Wind Profile Meteogram Temp Stats Airport Information Weather charts Add Link Nearby VenuesMetar ALERT Operation Metar Decoded Social comments